Time;durP1;ratioP1;P1;durP2;ratioP2;P2;SDS_P1;SDS_P2;PMS_P1;PMS_P2;Temp;Humidity;BMP_temperature;BMP_pressure;BME280_temperature;BME280_humidity;BME280_pressure;Samples;Min_cycle;Max_cycle;Signal;HPM_P1;HPM_P2
2023/11/14 00:02:00;;;;;;;;;;;18.60;58.30;;;;;;1485080;79;1152;-58
2023/11/14 00:04:02;;;;;;;;;;;18.60;58.30;;;;;;1486377;79;685;-60
2023/11/14 00:06:04;;;;;;;;;;;18.60;58.30;;;;;;1488897;79;732;-61
2023/11/14 00:08:06;;;;;;;;;;;18.70;58.40;;;;;;1483614;79;754;-59
2023/11/14 00:10:08;;;;;;;;;;;18.60;58.30;;;;;;1490924;79;684;-61
2023/11/14 00:12:10;;;;;;;;;;;18.70;58.40;;;;;;1493903;79;1245;-60
2023/11/14 00:14:12;;;;;;;;;;;18.60;58.30;;;;;;1487956;79;1570;-61
2023/11/14 00:16:14;;;;;;;;;;;18.60;58.30;;;;;;1491549;79;702;-60
2023/11/14 00:18:16;;;;;;;;;;;18.60;58.30;;;;;;1484535;79;719;-61
2023/11/14 00:20:17;;;;;;;;;;;18.70;58.40;;;;;;1484210;79;1931;-60
2023/11/14 00:22:19;;;;;;;;;;;18.70;58.40;;;;;;1468586;79;1127;-59
2023/11/14 00:24:21;;;;;;;;;;;18.60;58.30;;;;;;1486649;79;714;-60
2023/11/14 00:26:23;;;;;;;;;;;18.70;58.40;;;;;;1484489;79;743;-61
2023/11/14 00:28:25;;;;;;;;;;;18.60;58.30;;;;;;1487185;79;1534;-60
2023/11/14 00:30:27;;;;;;;;;;;18.60;58.30;;;;;;1479150;79;678;-60
2023/11/14 00:32:29;;;;;;;;;;;18.60;58.30;;;;;;1482775;79;1138;-60
2023/11/14 00:34:31;;;;;;;;;;;18.60;58.30;;;;;;1485012;79;757;-59
2023/11/14 00:36:33;;;;;;;;;;;18.60;58.30;;;;;;1491265;79;721;-61
2023/11/14 00:38:35;;;;;;;;;;;18.70;58.40;;;;;;1485435;79;750;-60
2023/11/14 00:40:38;;;;;;;;;;;18.70;58.40;;;;;;1487172;79;1922;-59
2023/11/14 00:42:40;;;;;;;;;;;18.70;58.40;;;;;;1492289;79;1575;-60
2023/11/14 00:44:42;;;;;;;;;;;18.70;58.50;;;;;;1479769;79;703;-61
2023/11/14 00:46:44;;;;;;;;;;;18.60;58.30;;;;;;1482835;79;694;-60
2023/11/14 00:48:46;;;;;;;;;;;18.70;58.40;;;;;;1483570;79;749;-60
2023/11/14 00:50:48;;;;;;;;;;;18.70;58.40;;;;;;1482309;79;727;-61
2023/11/14 00:52:50;;;;;;;;;;;18.70;58.50;;;;;;1482383;79;1193;-60
2023/11/14 00:54:52;;;;;;;;;;;18.70;58.40;;;;;;1483001;79;696;-60
2023/11/14 00:56:54;;;;;;;;;;;18.60;58.30;;;;;;1492609;79;1359;-60
2023/11/14 00:58:56;;;;;;;;;;;18.70;58.50;;;;;;1480238;79;782;-60
2023/11/14 01:00:58;;;;;;;;;;;18.60;58.40;;;;;;1487791;79;1910;-59
2023/11/14 01:03:00;;;;;;;;;;;18.70;58.50;;;;;;1476484;79;1208;-60
2023/11/14 01:05:02;;;;;;;;;;;18.60;58.40;;;;;;1486297;79;691;-60
2023/11/14 01:07:05;;;;;;;;;;;18.60;58.40;;;;;;1484403;79;616;-61
2023/11/14 01:09:08;;;;;;;;;;;18.60;58.40;;;;;;1489027;79;746;-60
2023/11/14 01:11:10;;;;;;;;;;;18.60;58.40;;;;;;1488580;79;1571;-61
2023/11/14 01:13:12;;;;;;;;;;;18.70;58.50;;;;;;1484784;79;1125;-60
2023/11/14 01:15:14;;;;;;;;;;;18.60;58.40;;;;;;1489917;79;693;-61
2023/11/14 01:17:16;;;;;;;;;;;18.60;58.40;;;;;;1485001;79;787;-61
2023/11/14 01:19:18;;;;;;;;;;;18.70;58.50;;;;;;1480663;79;703;-59
2023/11/14 01:21:20;;;;;;;;;;;18.60;58.40;;;;;;1491116;79;1919;-61
2023/11/14 01:23:22;;;;;;;;;;;18.60;58.30;;;;;;1485972;79;1143;-60
2023/11/14 01:25:24;;;;;;;;;;;18.70;58.40;;;;;;1479536;79;1579;-59
2023/11/14 01:27:26;;;;;;;;;;;18.60;58.30;;;;;;1481531;79;747;-60
2023/11/14 01:29:27;;;;;;;;;;;18.70;58.40;;;;;;1480950;79;783;-59
2023/11/14 01:31:29;;;;;;;;;;;18.70;58.50;;;;;;1487490;79;679;-60
2023/11/14 01:33:31;;;;;;;;;;;18.60;58.40;;;;;;1478810;79;1094;-60
2023/11/14 01:35:33;;;;;;;;;;;18.60;58.30;;;;;;1487217;79;737;-60
2023/11/14 01:37:35;;;;;;;;;;;18.70;58.40;;;;;;1487523;79;843;-60
2023/11/14 01:39:37;;;;;;;;;;;18.70;58.40;;;;;;1478722;79;1560;-60
2023/11/14 01:41:39;;;;;;;;;;;18.70;58.50;;;;;;1481266;79;1925;-61
2023/11/14 01:43:41;;;;;;;;;;;18.70;58.50;;;;;;1484275;79;708;-58
2023/11/14 01:45:43;;;;;;;;;;;18.70;58.50;;;;;;1479802;79;721;-60
2023/11/14 01:47:47;;;;;;;;;;;18.60;58.40;;;;;;1484403;79;728;-59
2023/11/14 01:49:49;;;;;;;;;;;18.60;58.30;;;;;;1493369;79;749;-60
2023/11/14 01:51:51;;;;;;;;;;;18.60;58.40;;;;;;1491342;79;1155;-60
2023/11/14 01:53:54;;;;;;;;;;;18.60;58.40;;;;;;1484596;79;1560;-59
2023/11/14 01:55:56;;;;;;;;;;;18.60;58.40;;;;;;1490953;79;736;-61
2023/11/14 01:57:58;;;;;;;;;;;18.60;58.30;;;;;;1490131;79;744;-60
2023/11/14 02:00:00;;;;;;;;;;;18.60;58.40;;;;;;1479108;79;792;-59
2023/11/14 02:02:04;;;;;;;;;;;18.60;58.40;;;;;;1487709;79;1931;-61
2023/11/14 02:04:08;;;;;;;;;;;18.60;58.40;;;;;;1489357;79;1053;-61
2023/11/14 02:06:10;;;;;;;;;;;18.60;58.40;;;;;;1483478;79;1464;-61
2023/11/14 02:08:12;;;;;;;;;;;18.60;58.40;;;;;;1481438;79;1609;-61
2023/11/14 02:10:14;;;;;;;;;;;18.70;58.40;;;;;;1490958;79;790;-60
2023/11/14 02:12:16;;;;;;;;;;;18.60;58.30;;;;;;1490387;79;1105;-61
2023/11/14 02:14:18;;;;;;;;;;;18.60;58.40;;;;;;1487328;79;786;-60
2023/11/14 02:16:20;;;;;;;;;;;18.60;58.30;;;;;;1485560;79;686;-60
2023/11/14 02:18:22;;;;;;;;;;;18.60;58.30;;;;;;1483038;79;685;-60
2023/11/14 02:20:24;;;;;;;;;;;18.60;58.40;;;;;;1487496;79;861;-58
2023/11/14 02:22:26;;;;;;;;;;;18.60;58.30;;;;;;1480746;79;1947;-59
2023/11/14 02:24:28;;;;;;;;;;;18.60;58.30;;;;;;1483492;79;629;-60
2023/11/14 02:26:30;;;;;;;;;;;18.60;58.30;;;;;;1489726;79;725;-61
2023/11/14 02:28:32;;;;;;;;;;;18.60;58.30;;;;;;1485432;79;689;-61
2023/11/14 02:30:34;;;;;;;;;;;18.60;58.40;;;;;;1489562;79;808;-60
2023/11/14 02:32:36;;;;;;;;;;;18.60;58.30;;;;;;1488051;79;1144;-60
2023/11/14 02:34:38;;;;;;;;;;;18.60;58.30;;;;;;1483048;79;1568;-60
2023/11/14 02:36:40;;;;;;;;;;;18.70;58.40;;;;;;1482535;79;735;-60
2023/11/14 02:38:41;;;;;;;;;;;18.70;58.50;;;;;;1480155;79;736;-60
2023/11/14 02:40:45;;;;;;;;;;;18.60;58.40;;;;;;1487445;79;678;-60
2023/11/14 02:42:47;;;;;;;;;;;18.70;58.40;;;;;;1476462;79;1163;-60
2023/11/14 02:44:49;;;;;;;;;;;18.60;58.40;;;;;;1489314;79;684;-60
2023/11/14 02:46:51;;;;;;;;;;;18.60;58.30;;;;;;1485589;79;691;-60
2023/11/14 02:48:53;;;;;;;;;;;18.60;58.30;;;;;;1492670;79;1567;-60
2023/11/14 02:50:58;;;;;;;;;;;18.60;58.30;;;;;;1487193;79;683;-60
2023/11/14 02:53:00;;;;;;;;;;;18.70;58.40;;;;;;1483535;79;1094;-61
2023/11/14 02:55:02;;;;;;;;;;;18.70;58.40;;;;;;1478876;79;742;-60
2023/11/14 02:57:07;;;;;;;;;;;18.60;58.30;;;;;;1484509;79;732;-58
2023/11/14 02:59:07;;;;;;;;;;;18.60;58.30;;;;;;1486891;79;1651;-60
2023/11/14 03:01:09;;;;;;;;;;;18.60;58.40;;;;;;1487740;79;1919;-61
2023/11/14 03:03:12;;;;;;;;;;;18.60;58.30;;;;;;1490408;79;1540;-59
2023/11/14 03:05:14;;;;;;;;;;;18.70;58.40;;;;;;1492718;79;677;-59
2023/11/14 03:07:16;;;;;;;;;;;18.70;58.40;;;;;;1493009;79;776;-61
2023/11/14 03:09:18;;;;;;;;;;;18.60;58.30;;;;;;1490763;79;704;-60
2023/11/14 03:11:20;;;;;;;;;;;18.60;58.30;;;;;;1484099;79;685;-60
2023/11/14 03:13:22;;;;;;;;;;;18.60;58.30;;;;;;1476399;79;1146;-60
2023/11/14 03:15:24;;;;;;;;;;;18.60;58.40;;;;;;1482766;79;699;-60
2023/11/14 03:17:26;;;;;;;;;;;18.60;58.30;;;;;;1479552;79;1586;-60
2023/11/14 03:19:29;;;;;;;;;;;18.60;58.30;;;;;;1489889;79;728;-60
2023/11/14 03:21:31;;;;;;;;;;;18.70;58.40;;;;;;1486290;79;1917;-60
2023/11/14 03:23:33;;;;;;;;;;;18.70;58.50;;;;;;1487918;79;1153;-60
2023/11/14 03:25:35;;;;;;;;;;;18.60;58.40;;;;;;1482701;79;703;-61
2023/11/14 03:27:36;;;;;;;;;;;18.70;58.50;;;;;;1482163;79;722;-61
2023/11/14 03:29:39;;;;;;;;;;;18.60;58.40;;;;;;1481692;79;708;-60
2023/11/14 03:31:40;;;;;;;;;;;18.60;58.40;;;;;;1485312;79;1543;-59
2023/11/14 03:33:42;;;;;;;;;;;18.60;58.40;;;;;;1487058;79;738;-61
2023/11/14 03:35:44;;;;;;;;;;;18.60;58.40;;;;;;1497403;79;684;-60
2023/11/14 03:37:46;;;;;;;;;;;18.60;58.40;;;;;;1497824;79;715;-60
2023/11/14 03:39:48;;;;;;;;;;;18.60;58.50;;;;;;1483217;79;760;-60
2023/11/14 03:41:50;;;;;;;;;;;18.60;58.50;;;;;;1482752;79;1915;-60
2023/11/14 03:43:52;;;;;;;;;;;18.70;58.50;;;;;;1485263;79;741;-61
2023/11/14 03:45:54;;;;;;;;;;;18.70;58.60;;;;;;1484245;79;1572;-61
2023/11/14 03:47:56;;;;;;;;;;;18.70;58.60;;;;;;1490179;79;768;-60
2023/11/14 03:49:58;;;;;;;;;;;18.70;58.60;;;;;;1485945;79;697;-61
2023/11/14 03:52:00;;;;;;;;;;;18.70;58.60;;;;;;1488376;79;1156;-60
2023/11/14 03:54:02;;;;;;;;;;;18.60;58.50;;;;;;1482240;79;777;-60
2023/11/14 03:56:07;;;;;;;;;;;18.70;58.60;;;;;;1491489;79;751;-60
2023/11/14 03:58:10;;;;;;;;;;;18.60;58.50;;;;;;1485800;79;923;-61
2023/11/14 04:00:13;;;;;;;;;;;18.60;58.50;;;;;;1482663;79;1588;-58
2023/11/14 04:02:14;;;;;;;;;;;18.70;58.60;;;;;;1493326;79;1938;-60
2023/11/14 04:04:16;;;;;;;;;;;18.70;58.70;;;;;;1491343;79;701;-60
2023/11/14 04:06:18;;;;;;;;;;;18.70;58.70;;;;;;1487049;79;785;-59
2023/11/14 04:08:20;;;;;;;;;;;18.70;58.60;;;;;;1486615;79;684;-60
2023/11/14 04:10:22;;;;;;;;;;;18.60;58.50;;;;;;1486207;79;867;-60
2023/11/14 04:12:24;;;;;;;;;;;18.70;58.60;;;;;;1493492;79;1162;-60
2023/11/14 04:14:26;;;;;;;;;;;18.70;58.70;;;;;;1481537;79;1591;-61
2023/11/14 04:16:28;;;;;;;;;;;18.50;58.60;;;;;;1488570;79;754;-60
2023/11/14 04:18:30;;;;;;;;;;;18.60;58.60;;;;;;1486225;79;745;-60
2023/11/14 04:20:32;;;;;;;;;;;18.60;58.50;;;;;;1488345;79;685;-60
2023/11/14 04:22:34;;;;;;;;;;;18.60;58.60;;;;;;1486378;79;1951;-59
2023/11/14 04:24:36;;;;;;;;;;;18.60;58.60;;;;;;1493817;79;690;-59
2023/11/14 04:26:37;;;;;;;;;;;18.60;58.60;;;;;;1485119;79;737;-58
2023/11/14 04:28:39;;;;;;;;;;;18.60;58.60;;;;;;1474773;79;1539;-59
2023/11/14 04:30:42;;;;;;;;;;;18.60;58.60;;;;;;1492461;79;676;-59
2023/11/14 04:32:44;;;;;;;;;;;18.70;58.60;;;;;;1488360;79;1147;-60
2023/11/14 04:34:46;;;;;;;;;;;18.70;58.70;;;;;;1483099;79;716;-61
2023/11/14 04:36:47;;;;;;;;;;;18.60;58.60;;;;;;1485627;79;773;-60
2023/11/14 04:38:49;;;;;;;;;;;18.70;58.60;;;;;;1490513;79;693;-60
2023/11/14 04:40:51;;;;;;;;;;;18.60;58.60;;;;;;1486553;79;735;-59
2023/11/14 04:42:53;;;;;;;;;;;18.70;58.70;;;;;;1489813;79;2094;-60
2023/11/14 04:44:55;;;;;;;;;;;18.70;58.70;;;;;;1489179;79;712;-60
2023/11/14 04:46:58;;;;;;;;;;;18.70;58.70;;;;;;1483986;79;690;-60
2023/11/14 04:49:00;;;;;;;;;;;18.60;58.60;;;;;;1488148;79;738;-60
2023/11/14 04:51:02;;;;;;;;;;;18.70;58.60;;;;;;1485093;79;687;-60
2023/11/14 04:53:04;;;;;;;;;;;18.70;58.60;;;;;;1480492;79;1148;-61
2023/11/14 04:55:06;;;;;;;;;;;18.70;58.70;;;;;;1483989;79;697;-61
2023/11/14 04:57:08;;;;;;;;;;;18.70;58.70;;;;;;1481053;79;1678;-60
2023/11/14 04:59:10;;;;;;;;;;;18.60;58.50;;;;;;1485626;79;775;-60
2023/11/14 05:01:12;;;;;;;;;;;18.60;58.50;;;;;;1485515;79;693;-60
2023/11/14 05:03:14;;;;;;;;;;;18.60;58.60;;;;;;1484028;79;1939;-61
2023/11/14 05:05:16;;;;;;;;;;;18.70;58.60;;;;;;1493943;79;697;-61
2023/11/14 05:07:17;;;;;;;;;;;18.60;58.60;;;;;;1487043;79;750;-60
2023/11/14 05:09:19;;;;;;;;;;;18.70;58.60;;;;;;1478626;79;1359;-60
2023/11/14 05:11:21;;;;;;;;;;;18.70;58.70;;;;;;1489046;79;677;-61
2023/11/14 05:13:23;;;;;;;;;;;18.70;58.60;;;;;;1488566;79;1128;-61
2023/11/14 05:15:25;;;;;;;;;;;18.60;58.50;;;;;;1486033;77;678;-59
2023/11/14 05:17:27;;;;;;;;;;;18.70;58.60;;;;;;1478944;79;686;-59
2023/11/14 05:19:29;;;;;;;;;;;18.70;58.70;;;;;;1482565;79;723;-60
2023/11/14 05:21:30;;;;;;;;;;;18.60;58.60;;;;;;1491205;79;702;-60
2023/11/14 05:23:32;;;;;;;;;;;18.60;58.60;;;;;;1483384;79;1951;-60
2023/11/14 05:25:35;;;;;;;;;;;18.70;58.60;;;;;;1489410;79;715;-60
2023/11/14 05:27:37;;;;;;;;;;;18.60;58.50;;;;;;1482497;79;793;-59
2023/11/14 05:29:39;;;;;;;;;;;18.70;58.70;;;;;;1488980;79;731;-60
2023/11/14 05:31:41;;;;;;;;;;;18.70;58.70;;;;;;1479838;79;1129;-60
2023/11/14 05:33:43;;;;;;;;;;;18.70;58.60;;;;;;1489777;79;713;-60
2023/11/14 05:35:44;;;;;;;;;;;18.60;58.50;;;;;;1490472;79;673;-60
2023/11/14 05:37:46;;;;;;;;;;;18.60;58.50;;;;;;1487294;79;1395;-59
2023/11/14 05:39:48;;;;;;;;;;;18.60;58.50;;;;;;1480435;79;729;-60
2023/11/14 05:41:50;;;;;;;;;;;18.70;58.60;;;;;;1486418;79;1942;-59
2023/11/14 05:43:52;;;;;;;;;;;18.70;58.60;;;;;;1491476;79;708;-61
2023/11/14 05:45:57;;;;;;;;;;;18.60;58.60;;;;;;1481721;79;769;-60
2023/11/14 05:47:59;;;;;;;;;;;18.60;58.50;;;;;;1490315;79;675;-60
2023/11/14 05:50:01;;;;;;;;;;;18.70;58.60;;;;;;1492286;79;846;-61
2023/11/14 05:52:03;;;;;;;;;;;18.70;58.60;;;;;;1490407;79;1567;-60
2023/11/14 05:54:05;;;;;;;;;;;18.70;58.60;;;;;;1489109;79;678;-60
2023/11/14 05:56:07;;;;;;;;;;;18.60;58.50;;;;;;1490526;79;705;-60
2023/11/14 05:58:09;;;;;;;;;;;18.70;58.70;;;;;;1485547;79;756;-61
2023/11/14 06:00:14;;;;;;;;;;;18.60;58.50;;;;;;1492279;79;715;-60
2023/11/14 06:02:15;;;;;;;;;;;18.60;58.50;;;;;;1486447;79;1936;-60
2023/11/14 06:04:17;;;;;;;;;;;18.70;58.60;;;;;;1489425;79;772;-61
2023/11/14 06:06:18;;;;;;;;;;;18.70;58.60;;;;;;1484647;79;1513;-60
2023/11/14 06:08:20;;;;;;;;;;;18.70;58.60;;;;;;1483076;79;702;-58
2023/11/14 06:10:22;;;;;;;;;;;18.70;58.60;;;;;;1483714;79;679;-55
2023/11/14 06:12:24;;;;;;;;;;;18.60;58.50;;;;;;1490893;79;1150;-57
2023/11/14 06:14:26;;;;;;;;;;;18.70;58.60;;;;;;1479176;79;697;-59
2023/11/14 06:16:28;;;;;;;;;;;18.70;58.60;;;;;;1489332;79;711;-59
2023/11/14 06:18:30;;;;;;;;;;;18.70;58.60;;;;;;1461738;80;687;-59
2023/11/14 06:20:34;;;;;;;;;;;18.70;58.60;;;;;;1481471;79;1504;-59
2023/11/14 06:22:36;;;;;;;;;;;18.70;58.60;;;;;;1487409;79;1908;-58
2023/11/14 06:24:38;;;;;;;;;;;18.60;58.50;;;;;;1487251;79;713;-58
2023/11/14 06:26:40;;;;;;;;;;;18.70;58.70;;;;;;1488793;79;690;-60
2023/11/14 06:28:41;;;;;;;;;;;18.60;58.60;;;;;;1481952;79;729;-59
2023/11/14 06:30:43;;;;;;;;;;;18.70;58.70;;;;;;1488845;79;684;-60
2023/11/14 06:32:45;;;;;;;;;;;18.70;58.60;;;;;;1493110;79;1165;-57
2023/11/14 06:34:47;;;;;;;;;;;18.60;58.50;;;;;;1481844;79;1605;-60
2023/11/14 06:36:49;;;;;;;;;;;18.70;58.70;;;;;;1490974;79;694;-60
2023/11/14 06:38:51;;;;;;;;;;;18.70;58.60;;;;;;1489835;79;683;-58
2023/11/14 06:40:53;;;;;;;;;;;18.60;58.50;;;;;;1498702;79;684;-59
2023/11/14 06:42:55;;;;;;;;;;;18.70;58.60;;;;;;1486164;79;1961;-58
2023/11/14 06:44:56;;;;;;;;;;;18.70;58.60;;;;;;1483404;79;694;-58
2023/11/14 06:46:58;;;;;;;;;;;18.60;58.50;;;;;;1482792;79;746;-57
2023/11/14 06:49:01;;;;;;;;;;;18.70;58.60;;;;;;1485888;79;1538;-56
2023/11/14 06:51:03;;;;;;;;;;;18.70;58.60;;;;;;1495510;79;694;-59
2023/11/14 06:53:06;;;;;;;;;;;18.60;58.50;;;;;;1479689;79;1185;-58
2023/11/14 06:55:08;;;;;;;;;;;18.70;58.70;;;;;;1487099;79;735;-59
2023/11/14 06:57:10;;;;;;;;;;;18.70;58.60;;;;;;1481926;79;800;-60
2023/11/14 06:59:12;;;;;;;;;;;18.70;58.60;;;;;;1492823;79;784;-59
2023/11/14 07:01:14;;;;;;;;;;;18.60;58.50;;;;;;1492649;79;791;-58
2023/11/14 07:03:16;;;;;;;;;;;18.70;58.60;;;;;;1491391;79;1955;-60
2023/11/14 07:05:18;;;;;;;;;;;18.70;58.60;;;;;;1490633;79;759;-58
2023/11/14 07:07:21;;;;;;;;;;;18.70;58.60;;;;;;1487537;79;761;-58
2023/11/14 07:09:25;;;;;;;;;;;18.70;58.70;;;;;;1486821;79;762;-60
2023/11/14 07:11:28;;;;;;;;;;;18.60;58.50;;;;;;1481120;79;1691;-60
2023/11/14 07:13:30;;;;;;;;;;;18.60;58.50;;;;;;1487996;79;1136;-59
2023/11/14 07:15:32;;;;;;;;;;;18.60;58.50;;;;;;1492860;79;795;-60
2023/11/14 07:17:35;;;;;;;;;;;18.70;58.60;;;;;;1483327;79;1682;-58
2023/11/14 07:19:37;;;;;;;;;;;18.60;58.50;;;;;;1481806;79;691;-59
2023/11/14 07:21:39;;;;;;;;;;;18.70;58.60;;;;;;1484315;79;1151;-58
2023/11/14 07:23:40;;;;;;;;;;;18.70;58.60;;;;;;1486476;79;1964;-59
2023/11/14 07:25:45;;;;;;;;;;;18.70;58.60;;;;;;1479390;79;924;-60
2023/11/14 07:27:49;;;;;;;;;;;18.70;58.60;;;;;;1489797;79;676;-60
2023/11/14 07:29:51;;;;;;;;;;;18.70;58.60;;;;;;1477905;79;1691;-56
2023/11/14 07:31:53;;;;;;;;;;;18.70;58.60;;;;;;1487635;79;1608;-60
2023/11/14 07:33:55;;;;;;;;;;;18.60;58.50;;;;;;1472869;79;658;-58
2023/11/14 07:35:57;;;;;;;;;;;18.60;58.50;;;;;;1485452;79;828;-59
2023/11/14 07:37:59;;;;;;;;;;;18.70;58.60;;;;;;1483152;79;885;-59
2023/11/14 07:40:01;;;;;;;;;;;18.70;58.60;;;;;;1487528;79;732;-59
2023/11/14 07:42:03;;;;;;;;;;;18.60;58.50;;;;;;1489057;79;1133;-56
2023/11/14 07:44:06;;;;;;;;;;;18.70;58.60;;;;;;1487631;79;1923;-58
2023/11/14 07:46:09;;;;;;;;;;;18.70;58.60;;;;;;1480984;79;766;-60
2023/11/14 07:48:11;;;;;;;;;;;18.60;58.50;;;;;;1478078;79;744;-58
2023/11/14 07:50:13;;;;;;;;;;;18.70;58.60;;;;;;1489917;79;712;-58
2023/11/14 07:52:15;;;;;;;;;;;18.70;58.60;;;;;;1480784;79;1171;-57
2023/11/14 07:54:17;;;;;;;;;;;18.70;58.60;;;;;;1481622;79;660;-61
2023/11/14 07:56:19;;;;;;;;;;;18.70;58.60;;;;;;1484951;79;745;-59
2023/11/14 07:58:23;;;;;;;;;;;18.60;58.50;;;;;;1481567;79;1551;-58
2023/11/14 08:00:24;;;;;;;;;;;18.70;58.60;;;;;;1484982;79;1677;-59
2023/11/14 08:02:26;;;;;;;;;;;18.60;58.50;;;;;;1477945;79;1183;-56
2023/11/14 08:04:28;;;;;;;;;;;18.70;58.60;;;;;;1491095;79;1961;-57
2023/11/14 08:06:30;;;;;;;;;;;18.60;58.50;;;;;;1487782;79;697;-60
2023/11/14 08:08:32;;;;;;;;;;;18.70;58.60;;;;;;1493759;79;692;-58
2023/11/14 08:10:35;;;;;;;;;;;18.70;58.50;;;;;;1486337;79;717;-57
2023/11/14 08:12:37;;;;;;;;;;;18.60;58.40;;;;;;1487092;79;1424;-56
2023/11/14 08:14:39;;;;;;;;;;;18.70;58.50;;;;;;1489979;79;685;-57
2023/11/14 08:16:41;;;;;;;;;;;18.70;58.50;;;;;;1483500;79;772;-57
2023/11/14 08:18:43;;;;;;;;;;;18.60;58.40;;;;;;1482117;79;723;-60
2023/11/14 08:20:44;;;;;;;;;;;18.70;58.50;;;;;;1484809;79;704;-60
2023/11/14 08:22:46;;;;;;;;;;;18.60;58.40;;;;;;1485779;79;1143;-60
2023/11/14 08:24:48;;;;;;;;;;;18.60;58.40;;;;;;1484505;79;1984;-60
2023/11/14 08:26:50;;;;;;;;;;;18.60;58.40;;;;;;1479838;79;1570;-60
2023/11/14 08:28:52;;;;;;;;;;;18.60;58.40;;;;;;1485888;79;787;-58
2023/11/14 08:30:54;;;;;;;;;;;18.70;58.50;;;;;;1485683;79;735;-57
2023/11/14 08:32:56;;;;;;;;;;;18.60;58.40;;;;;;1481386;79;1120;-57
2023/11/14 08:35:04;;;;;;;;;;;18.60;58.40;;;;;;1485991;79;711;-55
2023/11/14 08:37:04;;;;;;;;;;;18.60;58.40;;;;;;1490468;79;1695;-55
2023/11/14 08:39:09;;;;;;;;;;;18.70;58.50;;;;;;1480270;79;664;-60
2023/11/14 08:41:09;;;;;;;;;;;18.70;58.50;;;;;;1488970;79;1602;-60
2023/11/14 08:43:11;;;;;;;;;;;18.60;58.40;;;;;;1489297;79;1958;-60
2023/11/14 08:45:13;;;;;;;;;;;18.60;58.40;;;;;;1482493;79;714;-56
2023/11/14 08:47:15;;;;;;;;;;;18.70;58.50;;;;;;1481718;79;695;-60
2023/11/14 08:49:18;;;;;;;;;;;18.70;58.50;;;;;;1490523;79;750;-57
2023/11/14 08:51:21;;;;;;;;;;;18.70;58.50;;;;;;1490228;79;748;-60
2023/11/14 08:53:23;;;;;;;;;;;18.60;58.40;;;;;;1491593;79;1131;-58
2023/11/14 08:55:25;;;;;;;;;;;18.60;58.40;;;;;;1491762;79;1588;-60
2023/11/14 08:57:28;;;;;;;;;;;18.70;58.50;;;;;;1471064;79;566;-60
2023/11/14 08:59:30;;;;;;;;;;;18.70;58.60;;;;;;1489720;79;784;-60
2023/11/14 09:01:32;;;;;;;;;;;18.60;58.40;;;;;;1488158;79;797;-55
2023/11/14 09:03:34;;;;;;;;;;;18.70;58.50;;;;;;1480930;79;1987;-56
2023/11/14 09:05:36;;;;;;;;;;;18.70;58.60;;;;;;1487570;79;811;-60
2023/11/14 09:07:38;;;;;;;;;;;18.70;58.50;;;;;;1482677;79;682;-58
2023/11/14 09:09:40;;;;;;;;;;;18.70;58.50;;;;;;1486408;79;1278;-59
2023/11/14 09:11:42;;;;;;;;;;;18.70;58.50;;;;;;1496165;79;1156;-60
2023/11/14 09:13:45;;;;;;;;;;;18.70;58.50;;;;;;1489141;79;792;-56
2023/11/14 09:15:48;;;;;;;;;;;18.70;58.50;;;;;;1492683;79;669;-57
2023/11/14 09:17:50;;;;;;;;;;;18.60;58.40;;;;;;1484745;79;806;-60
2023/11/14 09:19:52;;;;;;;;;;;18.70;58.50;;;;;;1488992;79;741;-60
2023/11/14 09:21:54;;;;;;;;;;;18.60;58.40;;;;;;1484802;79;1155;-57
2023/11/14 09:23:57;;;;;;;;;;;18.70;58.50;;;;;;1477619;79;1922;-58
2023/11/14 09:25:59;;;;;;;;;;;18.60;58.40;;;;;;1491662;79;665;-59
2023/11/14 09:28:01;;;;;;;;;;;18.60;58.40;;;;;;1485889;79;689;-56
2023/11/14 09:30:03;;;;;;;;;;;18.70;58.50;;;;;;1481636;79;835;-60
2023/11/14 09:32:05;;;;;;;;;;;18.70;58.50;;;;;;1484986;79;1180;-60
2023/11/14 09:34:08;;;;;;;;;;;18.60;58.40;;;;;;1489545;79;688;-60
2023/11/14 09:36:10;;;;;;;;;;;18.60;58.40;;;;;;1490642;79;687;-54
2023/11/14 09:38:12;;;;;;;;;;;18.70;58.50;;;;;;1479400;79;1533;-61
2023/11/14 09:40:14;;;;;;;;;;;18.70;58.50;;;;;;1484500;79;696;-59
2023/11/14 09:42:16;;;;;;;;;;;18.70;58.50;;;;;;1483461;79;1137;-60
2023/11/14 09:44:18;;;;;;;;;;;18.60;58.30;;;;;;1490421;79;1920;-59
2023/11/14 09:46:20;;;;;;;;;;;18.70;58.50;;;;;;1478704;79;1121;-60
2023/11/14 09:48:22;;;;;;;;;;;18.60;58.40;;;;;;1487255;79;864;-53
2023/11/14 09:50:24;;;;;;;;;;;18.70;58.40;;;;;;1484373;79;783;-58
2023/11/14 09:52:26;;;;;;;;;;;18.70;58.50;;;;;;1484519;79;1529;-60
2023/11/14 09:54:28;;;;;;;;;;;18.70;58.50;;;;;;1484199;79;690;-58
2023/11/14 09:56:30;;;;;;;;;;;18.70;58.50;;;;;;1477610;79;729;-57
2023/11/14 09:58:32;;;;;;;;;;;18.70;58.50;;;;;;1483486;79;772;-55
2023/11/14 10:00:35;;;;;;;;;;;18.70;58.40;;;;;;1486061;79;871;-57
2023/11/14 10:02:38;;;;;;;;;;;18.60;58.30;;;;;;1489386;79;1188;-59
2023/11/14 10:04:40;;;;;;;;;;;18.60;58.30;;;;;;1485437;79;1936;-59
2023/11/14 10:06:42;;;;;;;;;;;18.60;58.30;;;;;;1483311;79;790;-59
2023/11/14 10:08:44;;;;;;;;;;;18.70;58.40;;;;;;1492146;79;792;-60
2023/11/14 10:11:10;;;;;;;;;;;18.70;58.40;;;;;;1491407;79;731;-58
2023/11/14 10:13:21;;;;;;;;;;;18.60;58.30;;;;;;1486832;79;1187;-59
2023/11/14 10:15:28;;;;;;;;;;;18.70;58.40;;;;;;1492281;79;753;-58
2023/11/14 10:17:43;;;;;;;;;;;18.70;58.40;;;;;;1485715;79;689;-59
2023/11/14 10:19:56;;;;;;;;;;;18.70;58.40;;;;;;1495191;79;1759;-60
2023/11/14 10:21:59;;;;;;;;;;;18.70;58.40;;;;;;1491326;79;1176;-57
2023/11/14 10:24:02;;;;;;;;;;;18.70;58.40;;;;;;1473233;80;2186;-56
2023/11/14 10:26:04;;;;;;;;;;;18.70;58.40;;;;;;1488646;79;738;-60
2023/11/14 10:28:07;;;;;;;;;;;18.70;58.40;;;;;;1484901;79;661;-59
2023/11/14 10:30:09;;;;;;;;;;;18.60;58.20;;;;;;1477586;79;739;-58
2023/11/14 10:32:12;;;;;;;;;;;18.70;58.30;;;;;;1493059;79;1093;-59
2023/11/14 10:34:25;;;;;;;;;;;18.70;58.30;;;;;;1485206;79;1588;-59
2023/11/14 10:36:27;;;;;;;;;;;18.70;58.30;;;;;;1488892;79;702;-59
2023/11/14 10:38:28;;;;;;;;;;;18.60;58.20;;;;;;1485720;79;676;-59
2023/11/14 10:40:32;;;;;;;;;;;18.70;58.30;;;;;;1484409;79;710;-57
2023/11/14 10:42:34;;;;;;;;;;;18.60;58.30;;;;;;1492266;79;1810;-59
2023/11/14 10:44:36;;;;;;;;;;;18.70;58.30;;;;;;1490595;79;1934;-60
2023/11/14 10:46:38;;;;;;;;;;;18.70;58.30;;;;;;1477024;79;800;-59
2023/11/14 10:48:40;;;;;;;;;;;18.60;58.20;;;;;;1482981;79;1427;-57
2023/11/14 10:50:42;;;;;;;;;;;18.70;58.30;;;;;;1483378;79;691;-58
2023/11/14 10:52:44;;;;;;;;;;;18.60;58.20;;;;;;1487238;79;1110;-53
2023/11/14 10:54:46;;;;;;;;;;;18.70;58.30;;;;;;1489653;79;760;-58
2023/11/14 10:56:48;;;;;;;;;;;18.70;58.30;;;;;;1492453;79;682;-61
2023/11/14 10:58:50;;;;;;;;;;;18.70;58.30;;;;;;1488136;79;694;-57
2023/11/14 11:00:52;;;;;;;;;;;18.70;58.30;;;;;;1489201;79;701;-58
2023/11/14 11:02:54;;;;;;;;;;;18.70;58.30;;;;;;1488143;79;1116;-59
2023/11/14 11:04:56;;;;;;;;;;;18.60;58.20;;;;;;1482640;79;1942;-58
2023/11/14 11:06:58;;;;;;;;;;;18.70;58.30;;;;;;1493669;79;820;-60
2023/11/14 11:09:00;;;;;;;;;;;18.70;58.30;;;;;;1492097;79;682;-59
2023/11/14 11:11:03;;;;;;;;;;;18.70;58.30;;;;;;1489006;78;678;-57
2023/11/14 11:13:06;;;;;;;;;;;18.70;58.30;;;;;;1489536;79;1163;-59
2023/11/14 11:15:11;;;;;;;;;;;18.70;58.20;;;;;;1480173;79;2009;-59
2023/11/14 11:17:13;;;;;;;;;;;18.70;58.30;;;;;;1479577;79;746;-60
2023/11/14 11:19:28;;;;;;;;;;;18.70;58.30;;;;;;1470231;80;1041;-55
2023/11/14 11:21:30;;;;;;;;;;;18.60;58.10;;;;;;1479560;79;710;-58
2023/11/14 11:23:32;;;;;;;;;;;18.70;58.30;;;;;;1491684;79;1159;-57
2023/11/14 11:25:34;;;;;;;;;;;18.60;58.20;;;;;;1465924;80;1937;-60
2023/11/14 11:27:42;;;;;;;;;;;18.70;58.20;;;;;;1487271;79;676;-60
2023/11/14 11:29:45;;;;;;;;;;;18.60;58.10;;;;;;1474289;79;1508;-61
2023/11/14 11:31:49;;;;;;;;;;;18.70;58.20;;;;;;1489506;79;1166;-55
2023/11/14 11:33:51;;;;;;;;;;;18.70;58.30;;;;;;1481802;79;1697;-56
2023/11/14 11:35:53;;;;;;;;;;;18.70;58.20;;;;;;1492703;79;768;-60
2023/11/14 11:37:57;;;;;;;;;;;18.70;58.20;;;;;;1461847;79;695;-58
2023/11/14 11:40:11;;;;;;;;;;;18.60;58.10;;;;;;1489040;79;747;-54
2023/11/14 11:42:12;;;;;;;;;;;18.70;58.20;;;;;;1478974;79;1559;-59
2023/11/14 11:44:12;;;;;;;;;;;18.60;58.10;;;;;;1484968;79;1930;-58
2023/11/14 11:46:35;;;;;;;;;;;18.70;58.20;;;;;;1486513;79;712;-57
2023/11/14 11:48:37;;;;;;;;;;;18.70;58.20;;;;;;1487452;79;663;-59
2023/11/14 11:50:41;;;;;;;;;;;18.70;58.20;;;;;;1492788;79;727;-56
2023/11/14 11:52:42;;;;;;;;;;;18.60;58.10;;;;;;1486021;79;1724;-57
2023/11/14 11:54:45;;;;;;;;;;;18.60;58.10;;;;;;1481955;79;894;-57
2023/11/14 11:56:46;;;;;;;;;;;18.60;58.10;;;;;;1492169;79;712;-56
2023/11/14 11:58:49;;;;;;;;;;;18.60;58.10;;;;;;1488588;79;1571;-59
2023/11/14 12:00:50;;;;;;;;;;;18.70;58.20;;;;;;1485658;79;721;-59
2023/11/14 12:02:52;;;;;;;;;;;18.70;58.20;;;;;;1493533;79;1149;-55
2023/11/14 12:04:56;;;;;;;;;;;18.70;58.10;;;;;;1485751;79;1912;-57
2023/11/14 12:06:57;;;;;;;;;;;18.60;58.10;;;;;;1474959;79;820;-56
2023/11/14 12:08:59;;;;;;;;;;;18.60;58.10;;;;;;1481169;79;688;-56
2023/11/14 12:11:01;;;;;;;;;;;18.60;58.00;;;;;;1486718;79;690;-58